Time;durP1;ratioP1;P1;durP2;ratioP2;P2;SDS_P1;SDS_P2;PMS_P1;PMS_P2;Temp;Humidity;BMP_temperature;BMP_pressure;BME280_temperature;BME280_humidity;BME280_pressure;Samples;Min_cycle;Max_cycle;Signal;HPM_P1;HPM_P2
2023/03/15 00:00:52;;;;;;;0.77;0.77;;;;;;;;;;5112518;27;20048;-73
2023/03/15 00:03:19;;;;;;;0.70;0.70;;;;;;;;;;5115172;27;20052;-73
2023/03/15 00:05:46;;;;;;;1.00;0.90;;;;;;;;;;5105859;28;20056;-73
2023/03/15 00:08:13;;;;;;;1.17;1.10;;;;;;;;;;5101870;28;20055;-74
2023/03/15 00:10:45;;;;;;;1.75;0.90;;;;;;;;;;5110582;28;20516;-72
2023/03/15 00:13:13;;;;;;;1.65;1.00;;;;;;;;;;5100833;28;20040;-75
2023/03/15 00:15:49;;;;;;;2.75;1.20;;;;;;;;;;5101070;28;20118;-74
2023/03/15 00:18:17;;;;;;;1.33;1.23;;;;;;;;;;5100399;28;20079;-75
2023/03/15 00:20:43;;;;;;;1.20;1.20;;;;;;;;;;5108548;28;20074;-74
2023/03/15 00:23:09;;;;;;;2.45;2.03;;;;;;;;;;5105626;28;20088;-74
2023/03/15 00:25:36;;;;;;;1.98;1.20;;;;;;;;;;5119531;27;20048;-73
2023/03/15 00:28:02;;;;;;;2.25;1.30;;;;;;;;;;5106255;28;20044;-74
2023/03/15 00:30:30;;;;;;;4.15;1.40;;;;;;;;;;5100391;28;20056;-73
2023/03/15 00:32:57;;;;;;;1.92;1.60;;;;;;;;;;5105098;28;20044;-74
2023/03/15 00:35:24;;;;;;;2.28;1.50;;;;;;;;;;5110255;27;20547;-74
2023/03/15 00:37:54;;;;;;;1.48;1.38;;;;;;;;;;5100490;28;20119;-74
2023/03/15 00:40:21;;;;;;;3.13;2.28;;;;;;;;;;5106100;28;20045;-74
2023/03/15 00:42:50;;;;;;;2.85;1.75;;;;;;;;;;5117762;28;20048;-74
2023/03/15 00:45:18;;;;;;;1.65;1.55;;;;;;;;;;5107377;27;20045;-74
2023/03/15 00:47:47;;;;;;;3.95;2.30;;;;;;;;;;5104988;28;20123;-73
2023/03/15 00:50:13;;;;;;;2.78;2.17;;;;;;;;;;5113764;27;20135;-74
2023/03/15 00:52:41;;;;;;;2.17;1.85;;;;;;;;;;5106968;27;20048;-74
2023/03/15 00:55:12;;;;;;;6.05;2.20;;;;;;;;;;5115994;28;20645;-75
2023/03/15 00:57:40;;;;;;;2.83;1.95;;;;;;;;;;5099939;27;20560;-74
2023/03/15 01:00:11;;;;;;;6.63;2.42;;;;;;;;;;5099155;28;20119;-73
2023/03/15 01:02:37;;;;;;;2.28;2.17;;;;;;;;;;5114145;28;20516;-74
2023/03/15 01:05:05;;;;;;;2.83;2.20;;;;;;;;;;5105446;28;20099;-74
2023/03/15 01:07:32;;;;;;;4.57;2.70;;;;;;;;;;5098164;28;20064;-74
2023/03/15 01:10:00;;;;;;;7.82;2.15;;;;;;;;;;5099819;28;20126;-74
2023/03/15 01:12:34;;;;;;;4.32;2.10;;;;;;;;;;5105905;28;20097;-73
2023/03/15 01:15:02;;;;;;;2.10;2.00;;;;;;;;;;5110762;27;20052;-74
2023/03/15 01:17:28;;;;;;;2.03;1.92;;;;;;;;;;5105939;28;20048;-74
2023/03/15 01:19:55;;;;;;;5.93;2.35;;;;;;;;;;5101031;28;20087;-74
2023/03/15 01:22:21;;;;;;;2.95;2.00;;;;;;;;;;5106631;27;20505;-73
2023/03/15 01:24:48;;;;;;;8.82;2.38;;;;;;;;;;5100018;28;20041;-74
2023/03/15 01:27:14;;;;;;;2.33;2.20;;;;;;;;;;5104705;28;20052;-73
2023/03/15 01:29:41;;;;;;;5.53;2.53;;;;;;;;;;5105338;28;20563;-73
2023/03/15 01:32:08;;;;;;;2.53;2.33;;;;;;;;;;5111023;28;20082;-73
2023/03/15 01:34:35;;;;;;;5.22;2.10;;;;;;;;;;5100944;28;20102;-74
2023/03/15 01:37:02;;;;;;;3.75;2.38;;;;;;;;;;5111069;27;20830;-74
2023/03/15 01:39:35;;;;;;;3.00;2.80;;;;;;;;;;5106334;28;20095;-74
2023/03/15 01:42:02;;;;;;;3.78;2.95;;;;;;;;;;5101658;28;20547;-74
2023/03/15 01:44:48;;;;;;;10.75;2.90;;;;;;;;;;5111601;28;20534;-73
2023/03/15 01:47:15;;;;;;;7.60;3.40;;;;;;;;;;5102243;28;20084;-73
2023/03/15 01:49:42;;;;;;;5.18;3.03;;;;;;;;;;5114384;28;20507;-73
2023/03/15 01:52:14;;;;;;;6.32;3.55;;;;;;;;;;5112129;28;20060;-73
2023/03/15 01:55:03;;;;;;;4.07;3.38;;;;;;;;;;5101371;28;20130;-73
2023/03/15 01:57:30;;;;;;;12.43;3.50;;;;;;;;;;5105927;28;20530;-74
2023/03/15 02:00:07;;;;;;;3.35;2.67;;;;;;;;;;5101552;28;20532;-73
2023/03/15 02:02:45;;;;;;;7.57;3.28;;;;;;;;;;5101441;28;20080;-73
2023/03/15 02:05:19;;;;;;;4.78;3.17;;;;;;;;;;5100826;28;20040;-73
2023/03/15 02:07:48;;;;;;;10.20;3.28;;;;;;;;;;5101225;28;20080;-73
2023/03/15 02:10:21;;;;;;;3.05;2.83;;;;;;;;;;5111652;28;20056;-73
2023/03/15 02:12:50;;;;;;;10.23;3.45;;;;;;;;;;5108433;28;20105;-73
2023/03/15 02:15:17;;;;;;;10.32;3.90;;;;;;;;;;5101264;28;20044;-73
2023/03/15 02:17:45;;;;;;;4.32;3.88;;;;;;;;;;5109184;28;20055;-72
2023/03/15 02:20:26;;;;;;;7.45;3.03;;;;;;;;;;5114323;27;20070;-73
2023/03/15 02:22:54;;;;;;;4.50;3.40;;;;;;;;;;5115919;28;20051;-73
2023/03/15 02:25:28;;;;;;;3.38;2.78;;;;;;;;;;5107613;28;20058;-73
2023/03/15 02:27:56;;;;;;;11.20;2.80;;;;;;;;;;5110105;28;20041;-73
2023/03/15 02:30:22;;;;;;;5.22;2.85;;;;;;;;;;5115909;27;20048;-73
2023/03/15 02:32:49;;;;;;;5.03;3.30;;;;;;;;;;5108116;27;20115;-73
2023/03/15 02:35:25;;;;;;;4.10;2.50;;;;;;;;;;5113324;28;20044;-74
2023/03/15 02:37:52;;;;;;;7.80;2.47;;;;;;;;;;5102076;28;20056;-75
2023/03/15 02:40:20;;;;;;;10.48;3.05;;;;;;;;;;5106718;27;20044;-75
2023/03/15 02:42:47;;;;;;;7.60;2.17;;;;;;;;;;5100970;28;20076;-75
2023/03/15 02:45:13;;;;;;;4.05;3.38;;;;;;;;;;5103390;27;20123;-74
2023/03/15 02:47:40;;;;;;;6.60;2.75;;;;;;;;;;5099513;28;20075;-74
2023/03/15 02:50:07;;;;;;;5.95;2.92;;;;;;;;;;5101033;28;20048;-75
2023/03/15 02:52:33;;;;;;;9.93;2.97;;;;;;;;;;5107941;28;20508;-74
2023/03/15 02:55:01;;;;;;;10.65;3.30;;;;;;;;;;5102349;28;20044;-74
2023/03/15 02:57:28;;;;;;;4.35;2.40;;;;;;;;;;5110778;27;22061;-75
2023/03/15 02:59:55;;;;;;;5.95;3.30;;;;;;;;;;5107545;28;20059;-74
2023/03/15 03:02:22;;;;;;;4.95;2.90;;;;;;;;;;5137464;27;20512;-74
2023/03/15 03:04:51;;;;;;;8.18;2.70;;;;;;;;;;5106502;27;20084;-74
2023/03/15 03:07:18;;;;;;;5.35;2.45;;;;;;;;;;5102382;28;20054;-74
2023/03/15 03:09:52;;;;;;;10.38;2.90;;;;;;;;;;5106750;28;20056;-74
2023/03/15 03:12:20;;;;;;;14.52;3.28;;;;;;;;;;5112786;28;20048;-74
2023/03/15 03:14:46;;;;;;;2.85;2.47;;;;;;;;;;5099389;28;20045;-74
2023/03/15 03:17:16;;;;;;;10.80;2.70;;;;;;;;;;5106447;28;20052;-74
2023/03/15 03:19:43;;;;;;;8.38;2.83;;;;;;;;;;5117669;28;20052;-74
2023/03/15 03:22:12;;;;;;;3.33;2.45;;;;;;;;;;5099014;28;20483;-74
2023/03/15 03:24:44;;;;;;;5.47;2.38;;;;;;;;;;5106680;28;20155;-74
2023/03/15 03:27:16;;;;;;;8.00;2.65;;;;;;;;;;5100292;28;20126;-74
2023/03/15 03:29:45;;;;;;;3.23;2.57;;;;;;;;;;5099064;28;20048;-74
2023/03/15 03:32:11;;;;;;;10.88;2.67;;;;;;;;;;5100718;28;20265;-74
2023/03/15 03:34:38;;;;;;;4.75;2.58;;;;;;;;;;5099963;28;20150;-74
2023/03/15 03:37:05;;;;;;;3.58;2.03;;;;;;;;;;5101904;28;20048;-74
2023/03/15 03:39:47;;;;;;;7.63;2.28;;;;;;;;;;5100983;28;20048;-74
2023/03/15 03:42:14;;;;;;;2.75;2.25;;;;;;;;;;5112517;28;20052;-74
2023/03/15 03:44:41;;;;;;;5.88;2.53;;;;;;;;;;5117864;28;20135;-74
2023/03/15 03:47:08;;;;;;;10.18;2.20;;;;;;;;;;5112224;28;20148;-74
2023/03/15 03:49:34;;;;;;;4.88;2.13;;;;;;;;;;5118592;28;20051;-74
2023/03/15 03:52:01;;;;;;;9.35;2.22;;;;;;;;;;5109954;27;20106;-74
2023/03/15 03:54:28;;;;;;;6.70;2.13;;;;;;;;;;5099656;28;20611;-74
2023/03/15 03:56:55;;;;;;;5.07;1.95;;;;;;;;;;5116983;28;20117;-74
2023/03/15 03:59:24;;;;;;;5.32;3.05;;;;;;;;;;5117999;28;20044;-74
2023/03/15 04:01:58;;;;;;;6.22;3.30;;;;;;;;;;5111511;27;20102;-74
2023/03/15 04:04:25;;;;;;;14.38;2.72;;;;;;;;;;5100050;28;20051;-74
2023/03/15 04:06:53;;;;;;;2.10;2.03;;;;;;;;;;5099335;28;20528;-74
2023/03/15 04:09:24;;;;;;;16.20;4.25;;;;;;;;;;5099628;28;20508;-74
2023/03/15 04:11:52;;;;;;;2.85;2.25;;;;;;;;;;5099510;28;20057;-74
2023/03/15 04:14:19;;;;;;;6.70;1.90;;;;;;;;;;5106895;28;20052;-75
2023/03/15 04:16:47;;;;;;;15.10;2.65;;;;;;;;;;5103769;28;20106;-74
2023/03/15 04:19:16;;;;;;;12.65;2.28;;;;;;;;;;5115048;28;20530;-74
2023/03/15 04:21:46;;;;;;;2.78;2.17;;;;;;;;;;5104537;27;20127;-74
2023/03/15 04:24:19;;;;;;;6.60;2.80;;;;;;;;;;5104888;27;20122;-74
2023/03/15 04:26:58;;;;;;;6.22;2.13;;;;;;;;;;5109243;28;20520;-74
2023/03/15 04:29:54;;;;;;;17.67;2.45;;;;;;;;;;5098435;27;20045;-72
2023/03/15 04:32:23;;;;;;;3.50;2.17;;;;;;;;;;5100998;28;20432;-73
2023/03/15 04:35:05;;;;;;;6.30;2.60;;;;;;;;;;5101845;28;20085;-74
2023/03/15 04:37:41;;;;;;;9.43;2.60;;;;;;;;;;5102388;28;20044;-74
2023/03/15 04:40:41;;;;;;;3.35;3.08;;;;;;;;;;5070793;28;20167;-73
2023/03/15 04:43:43;;;;;;;8.13;2.40;;;;;;;;;;5089029;28;20062;-73
2023/03/15 04:46:30;;;;;;;13.70;2.97;;;;;;;;;;5099060;28;20191;-73
2023/03/15 04:49:17;;;;;;;7.95;2.83;;;;;;;;;;5105064;28;20059;-73
2023/03/15 04:51:59;;;;;;;4.43;2.67;;;;;;;;;;5099634;28;20098;-73
2023/03/15 04:54:39;;;;;;;4.40;3.85;;;;;;;;;;5120473;27;20084;-74
2023/03/15 04:57:15;;;;;;;24.58;3.72;;;;;;;;;;5099561;28;20602;-73
2023/03/15 04:59:49;;;;;;;8.85;3.63;;;;;;;;;;5099452;28;20043;-73
2023/03/15 05:02:38;;;;;;;8.25;2.90;;;;;;;;;;5100829;28;20135;-74
2023/03/15 05:05:25;;;;;;;9.20;3.17;;;;;;;;;;5102924;28;20052;-74
2023/03/15 05:08:00;;;;;;;4.60;3.08;;;;;;;;;;5099801;27;20060;-74
2023/03/15 05:10:36;;;;;;;6.03;3.45;;;;;;;;;;5099220;28;20132;-74
2023/03/15 05:13:10;;;;;;;12.68;3.28;;;;;;;;;;5103441;28;20582;-74
2023/03/15 05:15:57;;;;;;;13.75;3.45;;;;;;;;;;5081211;28;20056;-74
2023/03/15 05:18:47;;;;;;;9.30;3.00;;;;;;;;;;5108074;28;20056;-74
2023/03/15 05:21:34;;;;;;;7.18;3.33;;;;;;;;;;5100774;28;20102;-74
2023/03/15 05:24:21;;;;;;;6.13;3.22;;;;;;;;;;5103595;28;20079;-74
2023/03/15 05:26:54;;;;;;;9.77;3.38;;;;;;;;;;5111848;28;20044;-74
2023/03/15 05:29:44;;;;;;;11.73;3.45;;;;;;;;;;5115293;28;20056;-73
2023/03/15 05:32:25;;;;;;;5.80;3.25;;;;;;;;;;5121100;27;20146;-74
2023/03/15 05:35:14;;;;;;;13.43;3.75;;;;;;;;;;5104708;28;20051;-74
2023/03/15 05:37:46;;;;;;;3.72;3.42;;;;;;;;;;5117195;28;20055;-74
2023/03/15 05:40:51;;;;;;;9.32;3.25;;;;;;;;;;5088448;28;20050;-74
2023/03/15 05:43:40;;;;;;;6.68;3.80;;;;;;;;;;5100974;28;20049;-74
2023/03/15 05:46:15;;;;;;;7.30;3.35;;;;;;;;;;5114827;28;20162;-74
2023/03/15 05:49:08;;;;;;;10.98;4.13;;;;;;;;;;5110844;28;20098;-74
2023/03/15 05:51:54;;;;;;;6.70;3.22;;;;;;;;;;5104787;28;20069;-74
2023/03/15 05:54:40;;;;;;;7.10;3.83;;;;;;;;;;5111472;28;20063;-74
2023/03/15 05:57:24;;;;;;;6.50;3.40;;;;;;;;;;5101095;28;20075;-74
2023/03/15 05:59:53;;;;;;;9.77;3.67;;;;;;;;;;5102762;28;20532;-73
2023/03/15 06:02:39;;;;;;;15.57;3.42;;;;;;;;;;5103777;28;20071;-74
2023/03/15 06:05:21;;;;;;;7.43;3.58;;;;;;;;;;5116046;28;20045;-74
2023/03/15 06:07:48;;;;;;;17.95;4.13;;;;;;;;;;5108277;28;20056;-74
2023/03/15 06:10:18;;;;;;;17.02;4.70;;;;;;;;;;5100575;28;20497;-73
2023/03/15 06:12:44;;;;;;;12.45;4.18;;;;;;;;;;5106992;28;20106;-74
2023/03/15 06:15:11;;;;;;;6.13;3.92;;;;;;;;;;5102343;28;20108;-73
2023/03/15 06:17:38;;;;;;;9.70;3.63;;;;;;;;;;5101445;28;20131;-73
2023/03/15 06:20:04;;;;;;;16.33;3.92;;;;;;;;;;5102209;28;20107;-74
2023/03/15 06:22:32;;;;;;;10.02;3.50;;;;;;;;;;5101232;28;20044;-74
2023/03/15 06:25:06;;;;;;;7.28;3.30;;;;;;;;;;5103364;28;20130;-74
2023/03/15 06:27:32;;;;;;;12.60;3.22;;;;;;;;;;5107393;28;20091;-74
2023/03/15 06:29:59;;;;;;;7.32;3.28;;;;;;;;;;5100877;28;20055;-74
2023/03/15 06:32:26;;;;;;;10.73;3.58;;;;;;;;;;5101814;28;20052;-74
2023/03/15 06:34:52;;;;;;;12.70;4.00;;;;;;;;;;5121570;28;20040;-74
2023/03/15 06:37:19;;;;;;;7.35;3.40;;;;;;;;;;5113727;28;20068;-74
2023/03/15 06:40:01;;;;;;;15.32;3.88;;;;;;;;;;5101964;28;20048;-73
2023/03/15 06:42:27;;;;;;;20.48;4.10;;;;;;;;;;5101124;28;20052;-74
2023/03/15 06:44:54;;;;;;;7.53;3.28;;;;;;;;;;5101204;28;20063;-74
2023/03/15 06:47:20;;;;;;;11.85;4.78;;;;;;;;;;5101068;28;20505;-74
2023/03/15 06:49:49;;;;;;;10.48;3.38;;;;;;;;;;5104748;28;20479;-74
2023/03/15 06:52:16;;;;;;;16.52;4.00;;;;;;;;;;5099959;28;20566;-74
2023/03/15 06:54:43;;;;;;;8.20;2.75;;;;;;;;;;5102195;28;20041;-74
2023/03/15 06:57:09;;;;;;;23.23;5.55;;;;;;;;;;5100182;28;20052;-74
2023/03/15 06:59:36;;;;;;;16.75;4.68;;;;;;;;;;5117046;28;20056;-73
2023/03/15 07:02:02;;;;;;;5.60;2.92;;;;;;;;;;5110209;27;20051;-73
2023/03/15 07:04:28;;;;;;;8.68;3.33;;;;;;;;;;5110483;28;20558;-73
2023/03/15 07:06:55;;;;;;;16.45;4.18;;;;;;;;;;5107514;28;20055;-75
2023/03/15 07:09:21;;;;;;;13.43;3.70;;;;;;;;;;5113378;27;20052;-74
2023/03/15 07:11:47;;;;;;;7.03;3.35;;;;;;;;;;5120572;28;20078;-75
2023/03/15 07:14:14;;;;;;;5.15;3.08;;;;;;;;;;5121713;28;20109;-75
2023/03/15 07:16:40;;;;;;;15.20;3.63;;;;;;;;;;5116644;27;20117;-73
2023/03/15 07:19:07;;;;;;;7.05;3.13;;;;;;;;;;5121579;28;20040;-73
2023/03/15 07:21:33;;;;;;;11.60;3.95;;;;;;;;;;5121543;28;20078;-72
2023/03/15 07:24:00;;;;;;;13.52;3.35;;;;;;;;;;5118599;27;20080;-74
2023/03/15 07:26:26;;;;;;;10.15;4.13;;;;;;;;;;5110275;28;20044;-74
2023/03/15 07:28:52;;;;;;;7.57;3.95;;;;;;;;;;5112448;28;20044;-74
2023/03/15 07:31:19;;;;;;;10.68;3.65;;;;;;;;;;5117018;27;20106;-74
2023/03/15 07:33:45;;;;;;;8.95;2.92;;;;;;;;;;5117167;27;20135;-74
2023/03/15 07:36:11;;;;;;;7.85;2.15;;;;;;;;;;5112014;28;20170;-74
2023/03/15 07:38:38;;;;;;;8.52;3.05;;;;;;;;;;5118949;28;20040;-75
2023/03/15 07:41:08;;;;;;;9.13;2.80;;;;;;;;;;5119650;27;20228;-74
2023/03/15 07:43:37;;;;;;;5.43;2.60;;;;;;;;;;5102215;27;20052;-73
2023/03/15 07:46:10;;;;;;;9.25;2.75;;;;;;;;;;5105024;28;20047;-73
2023/03/15 07:48:36;;;;;;;14.80;2.63;;;;;;;;;;5119300;28;20095;-73
2023/03/15 07:51:03;;;;;;;4.90;2.28;;;;;;;;;;5114443;28;20930;-73
2023/03/15 07:53:29;;;;;;;7.10;2.25;;;;;;;;;;5113299;28;20056;-72
2023/03/15 07:55:56;;;;;;;13.88;2.22;;;;;;;;;;5111952;27;20052;-73
2023/03/15 07:58:22;;;;;;;6.07;1.80;;;;;;;;;;5114570;28;20048;-74
2023/03/15 08:00:49;;;;;;;6.53;2.42;;;;;;;;;;5113483;28;20056;-73
2023/03/15 08:03:15;;;;;;;5.97;3.30;;;;;;;;;;5120885;27;20044;-73
2023/03/15 08:05:42;;;;;;;11.55;2.60;;;;;;;;;;5116290;27;20048;-74
2023/03/15 08:08:08;;;;;;;9.95;2.40;;;;;;;;;;5121145;28;20051;-73
2023/03/15 08:10:35;;;;;;;7.35;2.45;;;;;;;;;;5120687;27;20878;-73
2023/03/15 08:13:01;;;;;;;5.40;2.20;;;;;;;;;;5118636;28;20078;-73
2023/03/15 08:15:28;;;;;;;8.35;2.40;;;;;;;;;;5118582;28;20048;-74
2023/03/15 08:17:54;;;;;;;6.45;2.42;;;;;;;;;;5120440;27;20106;-73
2023/03/15 08:20:21;;;;;;;8.00;2.53;;;;;;;;;;5120195;28;20139;-74
2023/03/15 08:22:48;;;;;;;10.90;3.17;;;;;;;;;;5121059;27;20051;-73
2023/03/15 08:25:16;;;;;;;4.57;2.92;;;;;;;;;;5118192;27;20052;-73
2023/03/15 08:27:42;;;;;;;4.75;3.13;;;;;;;;;;5120973;27;20484;-73
2023/03/15 08:30:11;;;;;;;6.30;2.75;;;;;;;;;;5112707;27;20102;-73
2023/03/15 08:32:38;;;;;;;7.75;2.50;;;;;;;;;;5120844;27;20550;-72
2023/03/15 08:35:06;;;;;;;6.55;2.63;;;;;;;;;;5120926;27;20753;-74
2023/03/15 08:37:32;;;;;;;9.35;2.88;;;;;;;;;;5116674;27;20075;-74
2023/03/15 08:40:08;;;;;;;7.82;2.53;;;;;;;;;;5103906;27;20088;-74
2023/03/15 08:42:35;;;;;;;5.57;2.30;;;;;;;;;;5120633;28;20114;-73
2023/03/15 08:45:05;;;;;;;7.00;2.60;;;;;;;;;;5115675;27;20542;-73
2023/03/15 08:47:34;;;;;;;8.88;2.38;;;;;;;;;;5107452;27;20056;-73
2023/03/15 08:50:04;;;;;;;12.25;2.25;;;;;;;;;;5112133;28;20080;-74
2023/03/15 08:52:31;;;;;;;6.78;2.42;;;;;;;;;;5104614;28;20056;-74
2023/03/15 08:54:57;;;;;;;10.02;2.03;;;;;;;;;;5120168;27;20143;-74
2023/03/15 08:57:28;;;;;;;10.18;2.28;;;;;;;;;;5118502;28;20044;-73
2023/03/15 08:59:54;;;;;;;12.18;2.53;;;;;;;;;;5115135;28;20057;-74
2023/03/15 09:02:21;;;;;;;10.10;2.00;;;;;;;;;;5109554;28;20164;-72
2023/03/15 09:04:48;;;;;;;11.00;2.40;;;;;;;;;;5106727;27;20037;-73
2023/03/15 09:07:14;;;;;;;7.43;2.15;;;;;;;;;;5103931;28;20076;-72
2023/03/15 09:09:41;;;;;;;15.98;3.03;;;;;;;;;;5115752;28;20105;-74
2023/03/15 09:12:07;;;;;;;6.82;2.47;;;;;;;;;;5123528;27;20048;-73
2023/03/15 09:14:33;;;;;;;11.18;2.55;;;;;;;;;;5105226;28;20059;-72
2023/03/15 09:17:00;;;;;;;6.38;1.73;;;;;;;;;;5103550;28;20041;-74
2023/03/15 09:19:26;;;;;;;10.90;1.80;;;;;;;;;;5120276;28;20052;-74
2023/03/15 09:21:52;;;;;;;8.55;2.45;;;;;;;;;;5123691;27;20051;-74
2023/03/15 09:24:19;;;;;;;14.98;2.13;;;;;;;;;;5124029;28;20217;-74
2023/03/15 09:26:45;;;;;;;11.10;2.75;;;;;;;;;;5123335;28;20414;-72
2023/03/15 09:29:11;;;;;;;10.27;2.20;;;;;;;;;;5120943;28;20136;-70
2023/03/15 09:31:38;;;;;;;12.30;2.42;;;;;;;;;;5104167;28;20052;-72
2023/03/15 09:34:05;;;;;;;3.80;1.50;;;;;;;;;;5103179;28;20055;-72
2023/03/15 09:36:32;;;;;;;7.28;1.80;;;;;;;;;;5123719;27;20137;-73
2023/03/15 09:38:59;;;;;;;6.25;2.00;;;;;;;;;;5123864;27;20139;-74
2023/03/15 09:41:32;;;;;;;9.57;2.40;;;;;;;;;;5124064;27;20052;-75
2023/03/15 09:44:11;;;;;;;6.22;1.88;;;;;;;;;;5124160;27;20067;-74
2023/03/15 09:46:43;;;;;;;7.85;2.22;;;;;;;;;;5124666;27;20113;-74
2023/03/15 09:49:18;;;;;;;6.30;1.30;;;;;;;;;;5110544;27;20060;-73
2023/03/15 09:51:50;;;;;;;9.43;2.10;;;;;;;;;;5103230;28;20052;-74
2023/03/15 09:54:19;;;;;;;6.18;1.85;;;;;;;;;;5105526;28;20110;-73
2023/03/15 09:57:13;;;;;;;10.40;1.55;;;;;;;;;;5106636;27;20496;-73
2023/03/15 09:59:41;;;;;;;4.63;1.00;;;;;;;;;;5100391;28;20061;-74
2023/03/15 10:02:12;;;;;;;7.32;1.20;;;;;;;;;;5117003;28;20420;-74
2023/03/15 10:04:41;;;;;;;8.77;1.83;;;;;;;;;;5123439;27;20470;-73
2023/03/15 10:07:12;;;;;;;5.35;1.25;;;;;;;;;;5119649;27;20591;-74
2023/03/15 10:09:39;;;;;;;10.65;1.85;;;;;;;;;;5118155;27;20131;-74
2023/03/15 10:12:08;;;;;;;4.40;1.33;;;;;;;;;;5111972;27;20140;-74
2023/03/15 10:14:34;;;;;;;7.95;1.80;;;;;;;;;;5105234;28;20045;-74
2023/03/15 10:17:06;;;;;;;11.85;1.63;;;;;;;;;;5122326;28;20044;-74
2023/03/15 10:19:45;;;;;;;5.68;1.80;;;;;;;;;;5120900;28;20214;-74
2023/03/15 10:22:11;;;;;;;5.88;1.70;;;;;;;;;;5122863;27;20052;-75
2023/03/15 10:24:56;;;;;;;5.18;1.55;;;;;;;;;;5120070;28;20048;-74
2023/03/15 10:27:26;;;;;;;9.07;1.50;;;;;;;;;;5120741;28;20048;-75
2023/03/15 10:29:54;;;;;;;6.30;1.95;;;;;;;;;;5119023;27;20649;-75
2023/03/15 10:32:24;;;;;;;5.80;1.80;;;;;;;;;;5123056;27;20131;-75
2023/03/15 10:34:51;;;;;;;5.70;1.77;;;;;;;;;;5109944;27;20565;-75
2023/03/15 10:37:18;;;;;;;7.80;1.48;;;;;;;;;;5115384;27;20536;-75
2023/03/15 10:39:50;;;;;;;6.07;1.45;;;;;;;;;;5117551;28;20114;-75
2023/03/15 10:42:37;;;;;;;5.68;1.58;;;;;;;;;;5116724;27;20056;-75
2023/03/15 10:45:17;;;;;;;4.97;1.35;;;;;;;;;;5121807;27;20083;-75
2023/03/15 10:47:44;;;;;;;7.78;2.00;;;;;;;;;;5117024;27;20053;-74
2023/03/15 10:50:30;;;;;;;4.68;1.48;;;;;;;;;;5114769;27;20449;-75
2023/03/15 10:52:57;;;;;;;6.03;1.30;;;;;;;;;;5121666;27;20083;-74
2023/03/15 10:55:32;;;;;;;4.53;1.20;;;;;;;;;;5122543;27;20048;-74
2023/03/15 10:58:10;;;;;;;3.65;1.23;;;;;;;;;;5121266;27;20144;-74
2023/03/15 11:00:37;;;;;;;9.15;1.08;;;;;;;;;;5122636;27;20052;-75
2023/03/15 11:03:14;;;;;;;11.82;1.48;;;;;;;;;;5122297;28;20040;-75
2023/03/15 11:05:42;;;;;;;3.70;1.98;;;;;;;;;;5106814;27;20580;-74
2023/03/15 11:08:14;;;;;;;4.00;1.25;;;;;;;;;;5121492;28;20131;-75
2023/03/15 11:10:40;;;;;;;5.72;1.33;;;;;;;;;;5118296;27;20052;-74
2023/03/15 11:13:11;;;;;;;12.43;2.45;;;;;;;;;;5105913;28;20498;-74
2023/03/15 11:15:38;;;;;;;3.33;1.35;;;;;;;;;;5112150;28;20136;-75
2023/03/15 11:18:04;;;;;;;4.82;1.23;;;;;;;;;;5108287;27;20049;-75
2023/03/15 11:20:35;;;;;;;9.35;1.20;;;;;;;;;;5119471;28;20851;-74
2023/03/15 11:23:12;;;;;;;4.10;1.15;;;;;;;;;;5121854;27;20056;-75
2023/03/15 11:25:38;;;;;;;6.50;1.70;;;;;;;;;;5122421;27;20048;-74
2023/03/15 11:28:14;;;;;;;5.60;1.45;;;;;;;;;;5111018;27;20056;-74
2023/03/15 11:30:41;;;;;;;6.32;1.25;;;;;;;;;;5111307;27;20052;-74
2023/03/15 11:33:08;;;;;;;3.20;1.30;;;;;;;;;;5117362;28;20048;-75
2023/03/15 11:35:38;;;;;;;11.73;1.67;;;;;;;;;;5121941;27;20536;-74
2023/03/15 11:38:11;;;;;;;3.42;1.52;;;;;;;;;;5113967;28;20056;-74
2023/03/15 11:40:46;;;;;;;3.85;1.67;;;;;;;;;;5108466;27;20040;-74
2023/03/15 11:43:21;;;;;;;3.92;1.20;;;;;;;;;;5121235;28;20531;-74
2023/03/15 11:45:54;;;;;;;4.15;1.40;;;;;;;;;;5121874;27;20088;-74
2023/03/15 11:49:11;;;;;;;4.22;1.50;;;;;;;;;;5110399;28;20044;-75
2023/03/15 11:51:38;;;;;;;4.03;1.35;;;;;;;;;;5111141;27;20135;-74
2023/03/15 11:54:10;;;;;;;4.05;1.25;;;;;;;;;;5100043;28;20109;-74
2023/03/15 11:56:42;;;;;;;3.83;1.40;;;;;;;;;;5110658;27;20059;-74
2023/03/15 11:59:20;;;;;;;5.10;1.23;;;;;;;;;;5120149;28;20055;-75
2023/03/15 12:01:48;;;;;;;2.22;1.05;;;;;;;;;;5120976;27;21043;-74
2023/03/15 12:04:14;;;;;;;4.70;1.48;;;;;;;;;;5116390;27;20147;-74
2023/03/15 12:06:47;;;;;;;;;;;;;;;;;;5114541;28;20664;-73
2023/03/15 12:09:32;;;;;;;4.53;1.17;;;;;;;;;;5119791;28;37016;-73
2023/03/15 12:11:59;;;;;;;3.65;1.20;;;;;;;;;;5119711;28;20450;-73
2023/03/15 12:14:34;;;;;;;8.93;1.75;;;;;;;;;;5121275;27;20048;-73
2023/03/15 12:17:19;;;;;;;5.75;1.55;;;;;;;;;;5120166;27;20047;-73
2023/03/15 12:19:46;;;;;;;5.25;1.48;;;;;;;;;;5115601;28;20123;-74
2023/03/15 12:22:15;;;;;;;5.32;1.83;;;;;;;;;;5120536;27;20052;-74
2023/03/15 12:24:45;;;;;;;4.65;1.45;;;;;;;;;;5121101;27;20052;-74
2023/03/15 12:27:16;;;;;;;10.73;1.77;;;;;;;;;;5120913;27;20052;-75
2023/03/15 12:29:56;;;;;;;5.72;1.25;;;;;;;;;;5109510;27;20048;-74
2023/03/15 12:32:23;;;;;;;5.47;1.20;;;;;;;;;;5118730;28;20110;-76
2023/03/15 12:34:55;;;;;;;4.50;1.30;;;;;;;;;;5120315;27;20049;-75
2023/03/15 12:37:40;;;;;;;8.15;1.27;;;;;;;;;;5119930;27;20048;-74
2023/03/15 12:40:14;;;;;;;7.55;1.88;;;;;;;;;;5120890;27;20040;-75
2023/03/15 12:42:46;;;;;;;6.38;1.33;;;;;;;;;;5121182;27;20048;-75
2023/03/15 12:45:20;;;;;;;1.88;1.00;;;;;;;;;;5114547;28;20424;-74
2023/03/15 12:47:48;;;;;;;4.53;1.17;;;;;;;;;;5119936;27;20435;-75
2023/03/15 12:50:33;;;;;;;3.20;1.27;;;;;;;;;;5120311;27;20184;-75
2023/03/15 12:53:00;;;;;;;4.97;1.20;;;;;;;;;;5103580;28;20093;-74
2023/03/15 12:55:27;;;;;;;6.35;1.30;;;;;;;;;;5101731;27;20052;-75
2023/03/15 12:57:56;;;;;;;2.78;1.08;;;;;;;;;;5101882;28;20092;-74
2023/03/15 13:00:26;;;;;;;8.82;1.75;;;;;;;;;;5114488;28;20048;-74
2023/03/15 13:03:06;;;;;;;7.20;1.30;;;;;;;;;;5114990;27;20052;-75
2023/03/15 13:05:35;;;;;;;2.25;1.00;;;;;;;;;;5113584;27;20629;-74
2023/03/15 13:08:04;;;;;;;3.78;1.38;;;;;;;;;;5120423;27;20052;-73
2023/03/15 13:10:34;;;;;;;8.85;2.35;;;;;;;;;;5117660;27;20113;-76
2023/03/15 13:13:06;;;;;;;5.43;1.50;;;;;;;;;;5113856;27;22476;-73
2023/03/15 13:15:41;;;;;;;8.77;1.42;;;;;;;;;;5115190;28;20504;-73
2023/03/15 13:18:28;;;;;;;5.45;1.70;;;;;;;;;;5110035;28;20048;-75
2023/03/15 13:21:05;;;;;;;3.05;1.30;;;;;;;;;;5109326;27;20083;-75
2023/03/15 13:23:33;;;;;;;4.05;1.20;;;;;;;;;;5116995;28;20133;-76
2023/03/15 13:26:10;;;;;;;5.63;1.40;;;;;;;;;;5119612;27;20113;-73
2023/03/15 13:28:37;;;;;;;0.70;0.70;;;;;;;;;;5120523;27;20145;-72
2023/03/15 13:31:26;;;;;;;6.82;1.75;;;;;;;;;;5120085;27;20056;-73
2023/03/15 13:34:09;;;;;;;4.03;1.10;;;;;;;;;;5097870;28;20056;-75
2023/03/15 13:36:45;;;;;;;1.58;1.17;;;;;;;;;;5110234;28;20094;-75
2023/03/15 13:39:21;;;;;;;4.60;1.42;;;;;;;;;;5117577;28;20087;-75
2023/03/15 13:41:48;;;;;;;2.78;1.38;;;;;;;;;;5119720;27;20055;-75
2023/03/15 13:44:20;;;;;;;9.23;1.17;;;;;;;;;;5115182;28;20051;-75
2023/03/15 13:46:47;;;;;;;1.88;0.95;;;;;;;;;;5107973;27;20056;-74
2023/03/15 13:49:14;;;;;;;2.05;1.13;;;;;;;;;;5109737;27;20037;-74
2023/03/15 13:51:41;;;;;;;3.42;1.58;;;;;;;;;;5103128;28;20110;-74
2023/03/15 13:54:07;;;;;;;3.88;1.40;;;;;;;;;;5112459;27;20052;-75
2023/03/15 13:56:42;;;;;;;4.25;1.42;;;;;;;;;;5110201;28;20083;-74
2023/03/15 13:59:15;;;;;;;1.40;1.25;;;;;;;;;;5119414;27;20501;-75
2023/03/15 14:01:42;;;;;;;3.80;1.52;;;;;;;;;;5121039;27;20075;-75
2023/03/15 14:04:12;;;;;;;4.18;1.50;;;;;;;;;;5120598;28;20523;-75
2023/03/15 14:06:38;;;;;;;6.10;1.50;;;;;;;;;;5118084;27;20091;-74
2023/03/15 14:09:10;;;;;;;3.60;1.27;;;;;;;;;;5115245;27;20048;-74
2023/03/15 14:11:39;;;;;;;4.10;0.98;;;;;;;;;;5119540;27;20048;-74
2023/03/15 14:14:20;;;;;;;4.43;1.63;;;;;;;;;;5111618;28;20106;-74
2023/03/15 14:16:46;;;;;;;3.60;1.25;;;;;;;;;;5120860;27;22049;-74
2023/03/15 14:19:30;;;;;;;3.15;1.40;;;;;;;;;;5121131;28;20046;-74
2023/03/15 14:21:58;;;;;;;2.80;1.15;;;;;;;;;;5116385;28;20953;-74
2023/03/15 14:24:27;;;;;;;5.18;1.20;;;;;;;;;;5121945;27;20147;-74
2023/03/15 14:26:58;;;;;;;2.92;1.35;;;;;;;;;;5119505;27;20055;-74
2023/03/15 14:29:32;;;;;;;1.38;0.98;;;;;;;;;;5115211;28;20052;-74
2023/03/15 14:32:03;;;;;;;7.82;1.75;;;;;;;;;;5122778;27;20131;-74
2023/03/15 14:34:32;;;;;;;2.88;1.20;;;;;;;;;;5108868;27;20053;-73
2023/03/15 14:37:03;;;;;;;5.93;1.17;;;;;;;;;;5121883;27;20054;-74
2023/03/15 14:39:31;;;;;;;2.38;1.10;;;;;;;;;;5111717;27;20052;-74
2023/03/15 14:41:57;;;;;;;1.67;0.90;;;;;;;;;;5102071;28;20129;-74
2023/03/15 14:44:24;;;;;;;4.82;1.42;;;;;;;;;;5121561;27;20048;-74
2023/03/15 14:46:50;;;;;;;3.40;1.20;;;;;;;;;;5121206;27;20101;-74
2023/03/15 14:49:24;;;;;;;4.35;1.30;;;;;;;;;;5122543;27;20133;-74
2023/03/15 14:52:00;;;;;;;1.55;1.15;;;;;;;;;;5122232;27;20101;-73
2023/03/15 14:54:28;;;;;;;5.72;1.17;;;;;;;;;;5122775;27;20139;-73
2023/03/15 14:56:54;;;;;;;5.88;1.20;;;;;;;;;;5121457;27;20048;-75
2023/03/15 14:59:22;;;;;;;2.78;1.05;;;;;;;;;;5122500;27;20277;-75
2023/03/15 15:01:50;;;;;;;3.83;1.38;;;;;;;;;;5122026;27;20051;-74
2023/03/15 15:04:17;;;;;;;7.47;1.20;;;;;;;;;;5121721;27;20486;-74